Hauptseite
METAR-TAF:

METAR-TAF

Flughäfen :

Heritage Field Airport

Pottstown, Pennsylvania, Vereinigte Staaten

Breite: 40-14-18N, Länge: 075-33-26W, Höhe: 89 m

Beobachtung

Neuester Wetterbericht von vor 52 Minuten, um 16:54 UTC
Wind 3 kt aus unterschiedlichen Richtungen
Temperatur 18°C
Luftfeuchtigkeit 77%
Luftdruck 1024 hPa
Sichtweite: 14.5 km
Geschlossene Wolkendecke in der Höhe von 1900 ft

METAR: KPTW 251654Z AUTO VRB03KT 9SM OVC019 18/14 A3025 RMK AO2 SLP241 T01780139

Zeit: 13:46 (17:46 UTC)


TAF: fehlend

Wetterbeobachtungen und Prognosen von mehr als 4000 Flughäfen (METAR und TAF Bericht).

Die verfügbaren Stationen werden durch gelbe und rote Markierungen auf der Karte dargestellt.

Führen Sie die Maus auf sie, um den Namen der Station zu sehen.

Darauf klicken, um die Beobachtung von Wetterbeobachtungen und Prognosen zu sehen.

Um die Karte zu ändern : klicken Sie auf den grünen Tasten mit einem schwarzen Kreuz Zum Vergrößern, auf den grünen Button mit einem Gedankenstrich zu verkleinern, oder auf die grünen Pfeile für benachbarte Karten.


METAR-TAF: